Time;durP1;ratioP1;P1;durP2;ratioP2;P2;SDS_P1;SDS_P2;PMS_P1;PMS_P2;Temp;Humidity;BMP_temperature;BMP_pressure;BME280_temperature;BME280_humidity;BME280_pressure;Samples;Min_cycle;Max_cycle;Signal;HPM_P1;HPM_P2
2022/04/18 00:02:22;;;;;;;11.10;3.28;;;13.50;99.90;;;;;;5032566;28;20034;-74
2022/04/18 00:04:48;;;;;;;8.50;3.45;;;13.60;99.90;;;;;;5032268;28;20030;-74
2022/04/18 00:07:14;;;;;;;11.02;3.80;;;13.60;99.90;;;;;;5030879;28;20064;-74
2022/04/18 00:09:40;;;;;;;12.70;4.45;;;13.60;99.90;;;;;;5032216;28;20037;-75
2022/04/18 00:12:06;;;;;;;15.88;5.35;;;13.60;99.90;;;;;;5032081;28;20025;-75
2022/04/18 00:14:32;;;;;;;12.23;4.45;;;13.70;99.90;;;;;;5033637;28;20029;-74
2022/04/18 00:16:58;;;;;;;10.32;3.72;;;13.80;99.90;;;;;;5017495;28;20049;-75
2022/04/18 00:19:24;;;;;;;7.85;3.03;;;13.80;99.90;;;;;;5031256;28;20056;-74
2022/04/18 00:21:50;;;;;;;8.15;2.75;;;13.80;99.90;;;;;;5032028;28;20467;-74
2022/04/18 00:24:17;;;;;;;8.82;2.88;;;13.90;99.90;;;;;;5032062;28;20025;-74
2022/04/18 00:26:47;;;;;;;8.55;2.70;;;13.90;99.90;;;;;;5032278;28;20087;-74
2022/04/18 00:29:15;;;;;;;7.82;2.50;;;13.90;99.90;;;;;;5032027;28;20066;-74
2022/04/18 00:31:41;;;;;;;11.60;3.90;;;13.80;99.90;;;;;;5031777;28;20037;-74
2022/04/18 00:34:07;;;;;;;7.85;3.50;;;13.60;99.90;;;;;;5031153;28;20067;-74
2022/04/18 00:36:33;;;;;;;10.65;3.50;;;13.50;99.90;;;;;;5031776;28;20045;-75
2022/04/18 00:38:59;;;;;;;13.27;4.47;;;13.30;99.90;;;;;;5032369;28;20429;-74
2022/04/18 00:41:25;;;;;;;13.50;4.13;;;13.10;99.90;;;;;;5031977;28;20478;-74
2022/04/18 00:43:51;;;;;;;10.20;3.60;;;12.90;99.90;;;;;;5030166;28;20044;-74
2022/04/18 00:46:18;;;;;;;9.63;3.72;;;12.80;99.90;;;;;;5031636;28;20104;-74
2022/04/18 00:48:46;;;;;;;12.20;3.83;;;12.50;99.90;;;;;;5031538;28;20034;-74
2022/04/18 00:51:14;;;;;;;9.15;3.83;;;12.20;99.90;;;;;;5031670;28;20022;-74
2022/04/18 00:53:41;;;;;;;11.35;3.75;;;12.30;99.90;;;;;;5033278;28;20075;-74
2022/04/18 00:56:08;;;;;;;7.88;3.35;;;12.30;99.90;;;;;;5033399;28;20036;-74
2022/04/18 00:58:35;;;;;;;7.88;3.20;;;12.40;99.90;;;;;;5030950;28;20029;-74
2022/04/18 01:01:01;;;;;;;9.40;3.42;;;12.30;99.90;;;;;;5031798;28;20029;-74
2022/04/18 01:03:30;;;;;;;9.13;2.92;;;12.40;99.90;;;;;;5031583;28;20036;-74
2022/04/18 01:06:02;;;;;;;11.45;3.80;;;12.40;99.90;;;;;;5031562;28;20104;-74
2022/04/18 01:08:31;;;;;;;8.45;3.47;;;12.20;99.90;;;;;;5031735;28;20032;-74
2022/04/18 01:10:57;;;;;;;9.13;3.50;;;12.10;99.90;;;;;;5031881;28;20056;-74
2022/04/18 01:13:22;;;;;;;10.88;3.88;;;12.00;99.90;;;;;;5030841;28;20085;-74
2022/04/18 01:15:52;;;;;;;9.82;3.80;;;11.80;99.90;;;;;;5031418;28;20046;-74
2022/04/18 01:18:18;;;;;;;9.32;4.90;;;11.70;99.90;;;;;;5030925;28;20565;-74
2022/04/18 01:20:44;;;;;;;10.65;3.40;;;11.70;99.90;;;;;;5031380;28;20060;-74
2022/04/18 01:23:10;;;;;;;10.95;3.85;;;11.70;99.90;;;;;;5031643;28;20030;-74
2022/04/18 01:31:04;;;;;;;10.75;4.03;;;12.00;99.90;;;;;;5035653;28;20060;-74
2022/04/18 01:33:30;;;;;;;8.07;3.40;;;12.10;99.90;;;;;;5034653;28;20057;-75
2022/04/18 01:35:56;;;;;;;8.68;3.30;;;12.20;99.90;;;;;;5036237;28;20028;-74
2022/04/18 01:38:22;;;;;;;11.25;3.53;;;12.20;99.90;;;;;;5035340;28;20036;-74
2022/04/18 01:40:48;;;;;;;12.48;4.07;;;12.30;99.90;;;;;;5034807;28;20056;-74
2022/04/18 01:43:17;;;;;;;10.25;3.72;;;12.20;99.90;;;;;;5034102;28;20065;-74
2022/04/18 01:45:42;;;;;;;9.07;3.92;;;12.20;99.90;;;;;;5033032;28;20529;-74
2022/04/18 01:48:08;;;;;;;10.73;3.60;;;12.20;99.90;;;;;;5034193;28;20029;-74
2022/04/18 01:50:34;;;;;;;7.93;3.40;;;12.20;99.90;;;;;;5034584;28;20029;-74
2022/04/18 01:53:00;;;;;;;6.65;3.30;;;12.50;99.90;;;;;;5035265;28;20017;-74
2022/04/18 01:55:26;;;;;;;9.30;3.80;;;12.70;99.90;;;;;;5033792;28;20445;-74
2022/04/18 01:57:51;;;;;;;7.20;3.40;;;12.70;99.90;;;;;;5034665;28;20490;-74
2022/04/18 02:00:17;;;;;;;10.73;3.42;;;12.50;99.90;;;;;;5034418;28;20034;-74
2022/04/18 02:02:43;;;;;;;9.43;3.65;;;12.40;99.90;;;;;;5033884;28;20022;-74
2022/04/18 02:05:09;;;;;;;7.88;3.47;;;12.40;99.90;;;;;;5035074;28;20083;-74
2022/04/18 02:07:35;;;;;;;10.35;3.80;;;12.40;99.90;;;;;;5033408;28;20029;-74
2022/04/18 02:10:02;;;;;;;8.45;4.30;;;12.30;99.90;;;;;;5034391;28;20025;-74
2022/04/18 02:12:28;;;;;;;10.25;4.80;;;12.20;99.90;;;;;;5034284;28;20438;-74
2022/04/18 02:14:54;;;;;;;8.20;3.83;;;12.10;99.90;;;;;;5035487;28;20029;-74
2022/04/18 02:17:19;;;;;;;8.50;3.60;;;12.00;99.90;;;;;;5033982;28;20054;-74
2022/04/18 02:19:46;;;;;;;9.85;3.63;;;12.00;99.90;;;;;;5034325;28;20040;-74
2022/04/18 02:22:15;;;;;;;6.53;3.20;;;12.10;99.90;;;;;;5033514;28;20057;-74
2022/04/18 02:24:41;;;;;;;10.18;3.70;;;12.40;99.90;;;;;;5034046;28;20034;-74
2022/04/18 02:27:07;;;;;;;8.48;3.53;;;12.70;99.90;;;;;;5034469;28;20068;-74
2022/04/18 02:29:33;;;;;;;9.23;3.80;;;12.80;99.90;;;;;;5034089;28;20045;-74
2022/04/18 02:34:46;;;;;;;6.47;3.42;;;12.40;99.90;;;;;;5032018;28;20508;-74
2022/04/18 02:37:12;;;;;;;8.82;3.67;;;12.30;99.90;;;;;;5029876;28;20108;-74
2022/04/18 02:39:37;;;;;;;8.25;3.38;;;12.30;99.90;;;;;;5033967;28;20456;-74
2022/04/18 02:42:03;;;;;;;7.35;3.67;;;12.30;99.90;;;;;;5033598;28;20026;-74
2022/04/18 02:44:30;;;;;;;9.80;3.80;;;12.10;99.90;;;;;;5031514;28;20029;-74
2022/04/18 02:46:55;;;;;;;8.48;3.75;;;12.10;99.90;;;;;;5033860;28;20076;-74
2022/04/18 02:49:21;;;;;;;11.90;3.83;;;12.00;99.90;;;;;;5032783;28;20045;-74
2022/04/18 02:51:47;;;;;;;8.18;3.58;;;11.90;99.90;;;;;;5034914;28;20091;-74
2022/04/18 02:54:13;;;;;;;9.15;3.95;;;11.60;99.90;;;;;;5034921;28;20025;-74
2022/04/18 02:56:39;;;;;;;10.32;3.70;;;11.50;99.90;;;;;;5032868;28;20045;-74
2022/04/18 02:59:04;;;;;;;8.50;3.47;;;11.50;99.90;;;;;;5033312;28;20031;-74
2022/04/18 03:01:30;;;;;;;8.43;3.70;;;11.40;99.90;;;;;;5032708;28;20017;-74
2022/04/18 03:03:56;;;;;;;8.93;3.75;;;11.40;99.90;;;;;;5033369;28;20513;-73
2022/04/18 03:06:22;;;;;;;7.32;3.92;;;11.20;99.90;;;;;;5033091;28;20422;-74
2022/04/18 03:08:48;;;;;;;9.20;4.20;;;11.10;99.90;;;;;;5033528;28;20037;-74
2022/04/18 03:11:16;;;;;;;8.90;4.20;;;11.10;99.90;;;;;;5033235;28;20034;-74
2022/04/18 03:13:45;;;;;;;6.85;3.58;;;11.00;99.90;;;;;;5032555;28;20040;-74
2022/04/18 03:16:12;;;;;;;10.32;3.90;;;11.10;99.90;;;;;;5029849;28;20515;-73
2022/04/18 03:18:39;;;;;;;8.70;3.40;;;11.20;99.90;;;;;;5033155;28;20040;-74
2022/04/18 03:21:05;;;;;;;10.15;3.90;;;11.20;99.90;;;;;;5033057;28;20022;-73
2022/04/18 03:23:31;;;;;;;9.82;3.88;;;11.30;99.90;;;;;;5033502;28;20029;-73
2022/04/18 03:25:57;;;;;;;12.23;3.45;;;11.30;99.90;;;;;;5032590;28;20032;-74
2022/04/18 03:28:23;;;;;;;9.38;3.35;;;11.30;99.90;;;;;;5032011;28;20048;-73
2022/04/18 03:30:49;;;;;;;7.82;3.30;;;11.30;99.90;;;;;;5033097;28;20029;-73
2022/04/18 03:33:15;;;;;;;6.93;3.22;;;11.30;99.90;;;;;;5034127;28;20402;-74
2022/04/18 03:39:50;;;;;;;8.88;3.65;;;11.10;99.90;;;;;;5032853;28;20036;-74
2022/04/18 03:41:11;;;;;;;9.50;3.13;;;11.10;99.90;;;;;;5019011;28;20513;-74
2022/04/18 03:43:37;;;;;;;7.28;3.33;;;11.10;99.90;;;;;;5029226;28;20058;-74
2022/04/18 03:46:03;;;;;;;8.32;3.25;;;11.20;99.90;;;;;;5032641;28;20045;-74
2022/04/18 03:48:28;;;;;;;10.00;3.63;;;11.10;99.90;;;;;;5032495;28;20437;-74
2022/04/18 03:50:54;;;;;;;8.73;2.95;;;11.10;99.90;;;;;;5031142;28;20507;-74
2022/04/18 03:53:20;;;;;;;7.95;3.20;;;11.00;99.90;;;;;;5032414;28;20100;-74
2022/04/18 03:55:45;;;;;;;9.82;3.53;;;10.90;99.90;;;;;;5032460;28;20383;-74
2022/04/18 03:58:11;;;;;;;7.70;3.03;;;10.90;99.90;;;;;;5029482;28;20111;-73
2022/04/18 04:00:39;;;;;;;7.88;3.40;;;11.00;99.90;;;;;;5032323;28;20105;-73
2022/04/18 04:03:04;;;;;;;8.32;3.05;;;11.00;99.90;;;;;;5032423;28;20025;-74
2022/04/18 04:05:30;;;;;;;8.82;3.45;;;11.00;99.90;;;;;;5032699;28;20438;-73
2022/04/18 04:07:56;;;;;;;11.52;3.50;;;11.10;99.90;;;;;;5032154;28;20479;-73
2022/04/18 04:10:22;;;;;;;8.65;3.05;;;11.20;99.90;;;;;;5031804;28;20108;-73
2022/04/18 04:12:48;;;;;;;8.18;3.58;;;11.20;99.90;;;;;;5033096;28;20479;-73
2022/04/18 04:15:16;;;;;;;7.95;2.92;;;11.20;99.90;;;;;;5032421;28;20273;-74
2022/04/18 04:17:42;;;;;;;9.25;3.13;;;11.20;99.90;;;;;;5031841;28;20134;-73
2022/04/18 04:20:08;;;;;;;9.60;3.38;;;11.10;99.90;;;;;;5032095;28;20475;-74
2022/04/18 04:22:34;;;;;;;7.30;3.00;;;11.00;99.90;;;;;;5031205;28;20512;-74
2022/04/18 04:25:00;;;;;;;9.63;3.08;;;10.60;99.90;;;;;;5032238;28;20128;-73
2022/04/18 04:27:26;;;;;;;8.50;3.42;;;10.50;99.90;;;;;;5031475;28;20108;-73
2022/04/18 04:29:52;;;;;;;10.98;3.28;;;10.40;99.90;;;;;;5032464;28;20189;-74
2022/04/18 04:32:17;;;;;;;6.13;3.30;;;10.50;99.90;;;;;;5032130;28;20041;-73
2022/04/18 04:34:44;;;;;;;7.95;3.20;;;10.50;99.90;;;;;;5031767;28;20026;-73
2022/04/18 04:37:09;;;;;;;9.48;3.20;;;10.60;99.90;;;;;;5031082;28;20041;-74
2022/04/18 04:39:35;;;;;;;10.73;3.55;;;10.90;99.90;;;;;;5031851;28;20113;-73
2022/04/18 04:42:01;;;;;;;9.02;3.17;;;11.10;99.90;;;;;;5031393;28;20037;-73
2022/04/18 04:44:26;;;;;;;9.93;3.40;;;11.20;99.90;;;;;;5030444;28;20025;-73
2022/04/18 04:46:52;;;;;;;8.40;3.90;;;11.20;99.90;;;;;;5031730;28;20029;-73
2022/04/18 04:49:18;;;;;;;9.98;3.50;;;11.20;99.90;;;;;;5031147;28;20125;-73
2022/04/18 04:51:46;;;;;;;10.77;3.10;;;11.00;99.90;;;;;;5033147;28;20503;-73
2022/04/18 04:54:12;;;;;;;9.38;3.10;;;10.80;99.90;;;;;;5031603;28;20528;-73
2022/04/18 04:56:38;;;;;;;9.07;3.55;;;10.70;99.90;;;;;;5031740;28;20034;-73
2022/04/18 04:59:04;;;;;;;8.15;3.30;;;10.60;99.90;;;;;;5032979;28;20404;-73
2022/04/18 05:01:29;;;;;;;7.20;3.28;;;10.60;99.90;;;;;;5035291;28;20099;-74
2022/04/18 05:03:55;;;;;;;10.32;3.50;;;10.80;99.90;;;;;;5035429;28;20021;-73
2022/04/18 05:06:21;;;;;;;8.10;3.25;;;10.80;99.90;;;;;;5035405;28;20116;-73
2022/04/18 05:08:47;;;;;;;9.80;3.40;;;10.90;99.90;;;;;;5069158;28;20061;-73
2022/04/18 05:11:13;;;;;;;9.73;3.33;;;11.10;99.90;;;;;;5035183;28;20052;-73
2022/04/18 05:13:38;;;;;;;7.25;3.33;;;10.80;99.90;;;;;;5034483;28;20029;-73
2022/04/18 05:16:04;;;;;;;7.93;2.80;;;10.80;99.90;;;;;;5035057;28;20045;-73
2022/04/18 05:18:30;;;;;;;8.52;3.15;;;10.80;99.90;;;;;;5035235;28;20564;-73
2022/04/18 05:20:57;;;;;;;10.95;4.05;;;10.80;99.90;;;;;;5035046;28;20071;-73
2022/04/18 05:23:23;;;;;;;9.90;3.35;;;10.80;99.90;;;;;;5035193;28;20434;-73
2022/04/18 05:25:49;;;;;;;6.68;3.10;;;11.00;99.90;;;;;;5034615;28;20027;-73
2022/04/18 05:28:16;;;;;;;11.15;3.40;;;11.20;99.90;;;;;;5034853;28;20112;-73
2022/04/18 05:30:43;;;;;;;14.10;3.38;;;11.40;99.90;;;;;;5035092;28;20087;-73
2022/04/18 05:33:08;;;;;;;11.07;3.58;;;11.50;99.90;;;;;;5035165;28;20156;-73
2022/04/18 05:35:34;;;;;;;8.57;3.55;;;11.60;99.90;;;;;;5034873;28;20559;-73
2022/04/18 05:38:00;;;;;;;8.93;3.10;;;11.70;99.90;;;;;;5034981;28;20037;-73
2022/04/18 05:40:27;;;;;;;8.00;3.53;;;11.80;99.90;;;;;;5033600;28;20079;-74
2022/04/18 05:42:54;;;;;;;14.75;4.07;;;11.90;99.90;;;;;;5034743;28;20048;-74
2022/04/18 05:45:19;;;;;;;7.53;3.22;;;12.00;99.90;;;;;;5032908;28;20018;-73
2022/04/18 05:47:45;;;;;;;9.40;3.30;;;12.00;99.90;;;;;;5034811;28;20045;-73
2022/04/18 05:50:11;;;;;;;10.90;3.47;;;12.10;99.90;;;;;;5034662;28;20111;-73
2022/04/18 05:52:37;;;;;;;12.15;3.50;;;12.10;99.90;;;;;;5033977;28;20076;-74
2022/04/18 05:55:03;;;;;;;10.18;3.50;;;12.00;99.90;;;;;;5034391;28;20028;-73
2022/04/18 05:57:29;;;;;;;13.23;3.67;;;12.00;99.90;;;;;;5034917;28;20041;-73
2022/04/18 05:59:54;;;;;;;11.85;4.40;;;12.10;99.90;;;;;;5034654;28;20052;-73
2022/04/18 06:02:20;;;;;;;10.93;4.35;;;12.50;99.90;;;;;;5034597;28;20394;-73
2022/04/18 06:04:46;;;;;;;10.00;4.13;;;12.80;99.90;;;;;;5033630;28;20029;-73
2022/04/18 06:07:12;;;;;;;9.88;4.05;;;13.00;99.90;;;;;;5032050;28;20101;-73
2022/04/18 06:09:37;;;;;;;14.60;5.18;;;13.20;99.90;;;;;;5034874;28;20029;-73
2022/04/18 06:12:04;;;;;;;11.25;3.67;;;13.30;99.90;;;;;;5034433;28;20092;-73
2022/04/18 06:14:29;;;;;;;11.48;3.83;;;13.10;99.90;;;;;;5034293;28;20075;-74
2022/04/18 06:16:55;;;;;;;11.13;3.97;;;12.90;99.90;;;;;;5034034;28;20053;-73
2022/04/18 06:19:21;;;;;;;11.40;4.85;;;13.00;99.90;;;;;;5033898;28;20491;-73
2022/04/18 06:21:49;;;;;;;10.52;4.50;;;13.00;99.90;;;;;;5034141;28;20022;-73
2022/04/18 06:24:16;;;;;;;12.82;5.00;;;13.00;99.90;;;;;;5034113;28;20109;-73
2022/04/18 06:26:42;;;;;;;14.88;5.15;;;13.10;99.90;;;;;;5033982;28;20108;-73
2022/04/18 06:29:07;;;;;;;13.77;4.93;;;13.20;99.90;;;;;;5034066;28;20104;-73
2022/04/18 06:31:33;;;;;;;10.07;3.67;;;13.30;99.90;;;;;;5033635;28;20029;-73
2022/04/18 06:33:59;;;;;;;14.15;4.35;;;13.20;99.90;;;;;;5034051;28;20052;-73
2022/04/18 06:36:25;;;;;;;9.90;4.07;;;13.10;99.90;;;;;;5032050;28;20045;-74
2022/04/18 06:38:50;;;;;;;8.55;3.90;;;13.20;99.90;;;;;;5033749;28;20041;-73
2022/04/18 06:41:16;;;;;;;9.15;4.30;;;13.40;99.90;;;;;;5033908;28;20021;-74
2022/04/18 06:43:42;;;;;;;11.18;4.47;;;13.50;99.90;;;;;;5031587;28;20025;-73
2022/04/18 06:46:08;;;;;;;14.88;4.65;;;13.50;99.90;;;;;;5033121;28;20399;-73
2022/04/18 06:48:33;;;;;;;8.15;4.00;;;13.50;99.90;;;;;;5034897;28;20021;-73
2022/04/18 06:50:59;;;;;;;10.80;4.80;;;13.60;99.90;;;;;;5033721;28;20064;-73
2022/04/18 06:53:25;;;;;;;11.80;4.70;;;13.60;99.90;;;;;;5033487;28;20023;-77
2022/04/18 06:58:35;;;;;;;;;;;13.80;99.90;;;;;;5029484;28;20410;-74
2022/04/18 07:01:01;;;;;;;8.07;4.45;;;14.00;99.90;;;;;;5032404;28;19909;-75
2022/04/18 07:03:27;;;;;;;10.88;4.68;;;14.00;99.90;;;;;;5033368;28;20021;-73
2022/04/18 07:05:53;;;;;;;14.23;5.57;;;14.00;99.90;;;;;;5033020;28;20080;-73
2022/04/18 07:08:18;;;;;;;13.98;5.25;;;14.00;99.90;;;;;;5023338;28;20033;-73
2022/04/18 07:10:44;;;;;;;10.32;5.00;;;14.20;99.90;;;;;;5032235;28;20033;-72
2022/04/18 07:13:10;;;;;;;13.02;5.07;;;14.20;99.90;;;;;;5025372;28;20491;-72
2022/04/18 07:15:36;;;;;;;12.85;5.10;;;14.20;99.90;;;;;;5030251;28;20026;-72
2022/04/18 07:18:02;;;;;;;10.25;5.20;;;14.30;99.90;;;;;;5028756;28;20048;-73
2022/04/18 07:20:28;;;;;;;10.10;5.28;;;14.30;99.90;;;;;;5031949;28;20018;-73
2022/04/18 07:22:54;;;;;;;9.57;5.15;;;14.40;99.90;;;;;;5033698;28;20033;-72
2022/04/18 07:25:20;;;;;;;10.18;5.18;;;14.40;99.90;;;;;;5032072;28;20025;-72
2022/04/18 07:27:46;;;;;;;13.40;5.60;;;14.40;99.90;;;;;;5038758;28;20051;-73
2022/04/18 07:30:12;;;;;;;10.70;4.88;;;14.50;99.90;;;;;;5032762;28;20303;-73
2022/04/18 07:32:39;;;;;;;9.82;4.88;;;14.70;99.90;;;;;;5032600;28;20030;-72
2022/04/18 07:35:06;;;;;;;14.15;4.85;;;14.80;99.90;;;;;;5032402;28;20485;-72
2022/04/18 07:37:31;;;;;;;11.70;5.28;;;15.00;99.90;;;;;;5043608;28;20040;-72
2022/04/18 07:39:59;;;;;;;10.82;5.38;;;15.10;99.90;;;;;;5032682;28;20075;-73
2022/04/18 07:42:25;;;;;;;12.20;5.40;;;15.20;99.90;;;;;;5032686;28;20566;-74
2022/04/18 07:44:51;;;;;;;9.30;5.13;;;15.40;99.90;;;;;;5032510;28;20136;-75
2022/04/18 07:47:16;;;;;;;13.00;5.18;;;15.40;99.90;;;;;;5033908;28;20032;-74
2022/04/18 07:49:42;;;;;;;10.10;5.05;;;15.50;99.90;;;;;;5031490;28;20029;-73
2022/04/18 07:52:08;;;;;;;11.00;4.45;;;15.60;99.90;;;;;;5032189;28;20401;-73
2022/04/18 07:54:35;;;;;;;11.35;4.80;;;15.70;99.90;;;;;;5032245;28;20028;-74
2022/04/18 07:57:01;;;;;;;11.48;3.95;;;15.70;99.90;;;;;;5034942;28;20120;-73
2022/04/18 07:59:27;;;;;;;10.23;4.80;;;15.80;99.90;;;;;;5033961;28;20475;-75
2022/04/18 08:01:52;;;;;;;13.38;4.43;;;15.90;99.90;;;;;;5028179;28;20049;-74
2022/04/18 08:04:18;;;;;;;10.30;4.80;;;15.90;99.90;;;;;;5038624;28;20044;-76
2022/04/18 08:06:46;;;;;;;8.15;4.50;;;16.10;99.90;;;;;;5035484;28;20414;-75
2022/04/18 08:09:12;;;;;;;13.80;4.97;;;16.10;99.90;;;;;;5035708;28;20021;-74
2022/04/18 08:11:38;;;;;;;11.77;5.00;;;16.10;99.90;;;;;;5032252;28;20029;-75
2022/04/18 08:14:03;;;;;;;9.95;4.18;;;16.20;99.90;;;;;;5037057;28;20025;-75
2022/04/18 08:16:29;;;;;;;9.15;4.53;;;16.40;99.90;;;;;;5035154;28;20053;-74
2022/04/18 08:18:56;;;;;;;9.50;4.10;;;16.60;99.90;;;;;;5029515;28;20475;-75
2022/04/18 08:21:22;;;;;;;8.57;4.50;;;16.60;99.90;;;;;;5030497;28;20017;-75
2022/04/18 08:23:50;;;;;;;8.02;4.18;;;16.70;99.90;;;;;;5031875;28;20060;-73
2022/04/18 08:26:17;;;;;;;12.32;4.53;;;16.70;99.90;;;;;;5031856;28;20045;-76
2022/04/18 08:28:43;;;;;;;8.15;4.05;;;17.00;99.90;;;;;;5033072;28;20042;-76
2022/04/18 08:31:09;;;;;;;7.60;3.80;;;17.20;99.90;;;;;;5022367;28;20416;-79
2022/04/18 08:33:36;;;;;;;9.45;4.13;;;17.10;99.90;;;;;;5031798;28;20396;-73
2022/04/18 08:36:02;;;;;;;6.15;3.58;;;17.10;99.90;;;;;;5034251;28;20083;-76
2022/04/18 08:38:28;;;;;;;8.15;3.75;;;17.20;99.90;;;;;;5047983;28;20163;-77
2022/04/18 08:40:56;;;;;;;9.77;3.88;;;17.30;99.90;;;;;;5036738;28;20124;-76
2022/04/18 08:43:22;;;;;;;6.32;2.75;;;17.40;99.90;;;;;;5033614;28;20045;-76
2022/04/18 08:45:49;;;;;;;6.05;2.85;;;17.50;99.20;;;;;;5035180;28;20478;-75
2022/04/18 08:53:47;;;;;;;5.68;2.95;;;17.80;96.10;;;;;;5035127;28;20115;-75
2022/04/18 08:56:13;;;;;;;8.07;3.20;;;17.90;97.20;;;;;;5034212;28;20025;-78
2022/04/18 08:58:40;;;;;;;7.38;3.30;;;17.90;98.40;;;;;;5035260;28;20120;-76
2022/04/18 09:01:07;;;;;;;8.60;3.50;;;17.70;96.80;;;;;;5036113;28;20025;-77
2022/04/18 09:03:34;;;;;;;8.90;3.20;;;17.70;97.80;;;;;;5034843;28;20120;-78
2022/04/18 09:06:13;;;;;;;6.85;3.00;;;17.80;96.70;;;;;;5034839;28;20032;-76
2022/04/18 09:08:58;;;;;;;8.68;3.15;;;18.00;96.30;;;;;;5035527;28;20029;-75
2022/04/18 09:11:27;;;;;;;;;;;18.00;96.10;;;;;;5035595;28;20060;-76
2022/04/18 09:14:15;;;;;;;9.60;3.13;;;18.30;96.80;;;;;;5035296;28;19913;-75
2022/04/18 09:16:42;;;;;;;8.15;3.40;;;18.40;96.60;;;;;;5030313;28;20049;-75
2022/04/18 09:19:12;;;;;;;8.00;3.50;;;18.50;95.80;;;;;;5023786;28;20031;-76
2022/04/18 09:21:57;;;;;;;9.35;3.30;;;18.60;93.60;;;;;;5034768;28;20080;-75
2022/04/18 09:24:37;;;;;;;8.75;3.30;;;18.60;94.10;;;;;;5034771;28;20032;-74
2022/04/18 09:27:06;;;;;;;8.85;3.53;;;18.90;93.80;;;;;;5035268;28;20032;-76
2022/04/18 09:29:39;;;;;;;10.20;3.58;;;18.40;94.20;;;;;;5033197;28;20033;-75
2022/04/18 09:32:13;;;;;;;7.30;3.20;;;18.30;94.30;;;;;;5032291;28;20041;-76
2022/04/18 09:34:39;;;;;;;10.13;3.08;;;18.60;96.00;;;;;;5032783;28;20037;-76
2022/04/18 09:37:17;;;;;;;6.60;2.80;;;18.90;95.50;;;;;;5033884;28;20044;-77
2022/04/18 09:39:54;;;;;;;6.75;2.88;;;19.10;94.30;;;;;;5037466;28;20396;-77
2022/04/18 09:42:27;;;;;;;7.30;2.88;;;19.30;94.20;;;;;;5033437;28;20065;-76
2022/04/18 09:44:54;;;;;;;8.82;2.90;;;19.50;94.50;;;;;;5033448;28;20589;-76
2022/04/18 09:47:22;;;;;;;7.00;3.00;;;19.60;95.10;;;;;;5034565;28;20029;-75
2022/04/18 09:49:49;;;;;;;8.23;3.13;;;19.70;94.20;;;;;;5034634;28;20021;-75
2022/04/18 09:52:17;;;;;;;6.68;2.70;;;19.50;93.20;;;;;;5034620;28;20120;-75
2022/04/18 09:54:54;;;;;;;8.80;3.13;;;19.50;94.40;;;;;;5034274;28;20030;-75
2022/04/18 09:57:24;;;;;;;7.93;3.20;;;19.40;93.50;;;;;;5034264;28;20041;-73
2022/04/18 09:59:51;;;;;;;8.85;3.33;;;19.40;93.80;;;;;;5034056;28;20509;-74
2022/04/18 10:02:18;;;;;;;13.82;7.53;;;19.80;93.60;;;;;;5034497;28;20112;-74
2022/04/18 10:04:47;;;;;;;20.02;11.23;;;19.90;95.00;;;;;;5031636;28;20096;-74
2022/04/18 10:07:16;;;;;;;12.45;4.57;;;20.00;95.20;;;;;;5035543;28;20386;-73
2022/04/18 10:09:43;;;;;;;11.57;5.13;;;20.20;95.20;;;;;;5029800;28;20029;-74
2022/04/18 10:12:10;;;;;;;9.82;4.10;;;20.20;94.90;;;;;;5030814;28;20033;-75
2022/04/18 10:14:38;;;;;;;17.52;5.53;;;20.20;93.80;;;;;;5036025;28;20372;-75
2022/04/18 10:17:06;;;;;;;8.38;4.13;;;20.30;94.70;;;;;;5043110;28;20076;-75
2022/04/18 10:20:06;;;;;;;11.27;4.40;;;20.40;94.20;;;;;;5046064;28;20525;-74
2022/04/18 10:23:09;;;;;;;8.07;4.13;;;20.40;94.30;;;;;;5029051;28;20116;-74
2022/04/18 10:25:43;;;;;;;7.95;3.33;;;20.60;93.90;;;;;;5031884;28;20025;-74
2022/04/18 10:28:17;;;;;;;8.07;3.38;;;20.30;92.70;;;;;;5030966;28;20033;-75
2022/04/18 10:30:57;;;;;;;9.80;3.90;;;20.30;92.30;;;;;;5033399;28;20021;-75
2022/04/18 10:33:24;;;;;;;8.68;3.60;;;20.20;91.90;;;;;;5033184;28;20033;-74
2022/04/18 10:36:02;;;;;;;6.75;3.08;;;20.30;91.50;;;;;;5034031;28;20040;-74
2022/04/18 10:38:33;;;;;;;9.85;3.45;;;20.30;91.80;;;;;;5035394;28;20112;-75
2022/04/18 10:41:16;;;;;;;12.27;6.45;;;20.30;91.60;;;;;;5033946;28;20033;-77
2022/04/18 10:43:58;;;;;;;7.55;3.53;;;20.60;93.80;;;;;;5030212;28;20061;-77
2022/04/18 10:46:24;;;;;;;6.20;3.33;;;20.60;91.70;;;;;;5032405;28;20064;-79
2022/04/18 10:48:56;;;;;;;10.93;4.20;;;20.70;92.70;;;;;;5033438;28;20033;-76
2022/04/18 10:51:40;;;;;;;8.88;3.78;;;20.80;91.50;;;;;;5032369;28;20029;-76
2022/04/18 10:54:17;;;;;;;7.20;3.10;;;20.70;90.40;;;;;;5028951;28;20025;-79
2022/04/18 10:56:56;;;;;;;7.70;3.15;;;20.80;90.30;;;;;;5032716;28;20045;-75
2022/04/18 10:59:26;;;;;;;10.88;3.20;;;20.70;87.70;;;;;;5025919;28;20042;-76
2022/04/18 11:01:57;;;;;;;7.43;3.30;;;20.60;89.00;;;;;;5027606;28;20026;-75
2022/04/18 11:04:30;;;;;;;11.30;3.38;;;20.60;88.60;;;;;;5029007;28;20073;-76
2022/04/18 11:07:02;;;;;;;9.77;3.20;;;20.60;89.40;;;;;;5025421;28;20072;-77
2022/04/18 11:09:30;;;;;;;7.50;3.00;;;20.70;90.30;;;;;;5025694;28;20057;-74
2022/04/18 11:12:05;;;;;;;6.07;3.10;;;20.70;91.50;;;;;;5025150;28;20029;-74
2022/04/18 11:14:49;;;;;;;9.32;2.70;;;20.90;91.00;;;;;;5026530;28;20028;-74
2022/04/18 11:17:30;;;;;;;6.82;3.28;;;20.80;89.30;;;;;;5011533;28;20042;-73
2022/04/18 11:19:56;;;;;;;7.97;2.80;;;20.80;90.60;;;;;;5027527;28;20065;-74
2022/04/18 11:22:23;;;;;;;6.22;2.70;;;20.80;89.20;;;;;;5028319;28;20068;-74
2022/04/18 11:24:49;;;;;;;6.88;2.70;;;21.10;90.90;;;;;;5025372;28;20730;-74
2022/04/18 11:27:17;;;;;;;7.22;2.80;;;21.30;90.40;;;;;;5024324;28;20017;-74
2022/04/18 11:29:53;;;;;;;6.25;2.80;;;21.40;87.40;;;;;;5025323;28;20049;-74
2022/04/18 11:32:21;;;;;;;8.23;3.00;;;21.30;86.00;;;;;;5026778;28;20029;-74
2022/04/18 11:34:49;;;;;;;7.13;2.65;;;21.20;83.70;;;;;;5028320;28;20029;-74
2022/04/18 11:37:28;;;;;;;5.22;2.60;;;21.40;84.80;;;;;;5026663;28;20044;-74
2022/04/18 11:39:58;;;;;;;6.20;2.80;;;21.30;82.20;;;;;;5023385;28;20045;-75
2022/04/18 11:42:25;;;;;;;5.88;2.45;;;21.40;81.00;;;;;;5024262;28;20061;-74
2022/04/18 11:44:52;;;;;;;5.95;2.50;;;21.60;82.00;;;;;;5024964;28;20033;-76
2022/04/18 11:47:25;;;;;;;4.80;2.63;;;21.60;78.70;;;;;;5025269;28;20172;-72
2022/04/18 11:50:01;;;;;;;10.50;2.67;;;21.40;78.50;;;;;;5027135;28;20556;-73
2022/04/18 11:52:48;;;;;;;6.10;2.42;;;21.40;78.60;;;;;;5021287;28;20037;-73
2022/04/18 11:55:17;;;;;;;6.03;2.50;;;21.50;77.30;;;;;;5030442;28;20042;-74
2022/04/18 11:57:47;;;;;;;7.35;2.70;;;21.40;78.40;;;;;;5026579;28;20065;-74
2022/04/18 12:08:32;;;;;;;5.05;2.20;;;21.70;73.50;;;;;;5027683;28;20533;-72
2022/04/18 12:10:58;;;;;;;6.97;2.58;;;21.80;72.70;;;;;;5028489;28;20046;-72
2022/04/18 12:13:23;;;;;;;4.25;2.08;;;21.70;73.40;;;;;;5031071;28;20049;-73
2022/04/18 12:15:49;;;;;;;5.10;2.40;;;21.70;73.10;;;;;;5027753;28;20497;-73
2022/04/18 12:18:18;;;;;;;7.68;2.85;;;21.70;71.30;;;;;;5029090;28;20100;-72
2022/04/18 12:20:51;;;;;;;8.23;2.70;;;21.50;86.60;;;;;;5027192;28;20462;-72
2022/04/18 12:23:21;;;;;;;;;;;21.40;88.40;;;;;;5028104;28;20494;-72
2022/04/18 12:25:57;;;;;;;5.60;2.60;;;21.50;85.30;;;;;;5029882;28;20430;-73
2022/04/18 12:28:26;;;;;;;7.97;2.80;;;21.50;89.90;;;;;;5029813;28;20453;-72
2022/04/18 12:30:53;;;;;;;7.28;2.80;;;21.90;83.40;;;;;;5027635;28;20112;-73
2022/04/18 12:33:23;;;;;;;8.70;2.95;;;21.70;85.50;;;;;;5027760;28;20030;-73
2022/04/18 12:35:56;;;;;;;7.20;2.80;;;21.60;89.40;;;;;;5022561;28;20022;-73
2022/04/18 12:38:38;;;;;;;6.90;2.50;;;21.90;88.00;;;;;;5033453;28;20087;-73
2022/04/18 12:41:04;;;;;;;7.13;2.70;;;21.60;87.70;;;;;;5016174;28;20100;-72
2022/04/18 12:43:35;;;;;;;5.32;2.53;;;21.80;88.70;;;;;;5031205;28;20105;-72
2022/04/18 12:46:09;;;;;;;7.05;2.63;;;22.00;86.60;;;;;;5031916;28;20029;-73
2022/04/18 12:48:36;;;;;;;4.63;2.50;;;22.00;87.60;;;;;;5033529;28;20064;-72
2022/04/18 12:51:04;;;;;;;6.70;2.95;;;22.00;88.60;;;;;;5033807;28;20025;-72
2022/04/18 12:53:53;;;;;;;10.13;2.72;;;22.00;89.10;;;;;;5032003;28;20121;-72
2022/04/18 12:56:24;;;;;;;6.88;2.83;;;21.50;90.80;;;;;;5018526;28;20483;-72
2022/04/18 12:59:10;;;;;;;8.00;2.55;;;21.80;88.80;;;;;;5031981;28;20120;-73
2022/04/18 13:01:39;;;;;;;7.45;2.65;;;21.80;88.30;;;;;;5027154;28;20038;-72
2022/04/18 13:04:28;;;;;;;7.95;2.78;;;22.00;88.70;;;;;;5031703;28;20033;-72
2022/04/18 13:07:04;;;;;;;10.10;3.13;;;22.00;89.10;;;;;;5031886;28;20672;-72
2022/04/18 13:09:31;;;;;;;5.82;2.25;;;22.10;86.80;;;;;;5028993;28;20033;-72
2022/04/18 13:12:05;;;;;;;7.20;2.53;;;22.10;87.50;;;;;;5018952;28;20021;-70
2022/04/18 13:14:32;;;;;;;7.90;2.30;;;22.10;87.50;;;;;;5027470;28;20524;-70
2022/04/18 13:17:08;;;;;;;8.57;2.40;;;22.00;87.20;;;;;;5028402;28;20393;-69